TRA49E LFMN-EHRD
Flight info
| Callsign | TRA49E |
|---|---|
| Flight time | 1h 24m |
| Altitude | 34000 |
| Route | IRMAR DCT KINES DCT VANAS DCT MOBLO DCT UBIMA DCT GILIR DCT PENDU DCT IXILU DCT EPL DCT ROUSY DCT REMBA M624 BUB Y28 HELEN |
| Aircraft | B738/M-SDE2E3FGHIJ1RWXYZ/LB1 |
Departure
| Time | 2026-05-05 06:06 |
|---|---|
| Airport | Nice-Côte d'Azur Airport (LFMN) |
Arrival
| Time | 2026-05-05 07:31 |
|---|---|
| Airport | Rotterdam The Hague Airport (EHRD) |
| Time | Latitude | Longitude | Altitude | Speed | Heading |
|---|---|---|---|---|---|
| 2026-05-05 05:46 | 43.66422 | 7.21228 | 20 ft | 0 kts | 343° |
| 2026-05-05 05:53 | 43.66418 | 7.21230 | 20 ft | 2 kts | 343° |
| 2026-05-05 05:53 | 43.66403 | 7.21236 | 20 ft | 2 kts | 343° |
| 2026-05-05 05:54 | 43.66389 | 7.21242 | 20 ft | 2 kts | 343° |
| 2026-05-05 05:54 | 43.66375 | 7.21248 | 20 ft | 2 kts | 342° |
| 2026-05-05 05:54 | 43.66361 | 7.21254 | 23 ft | 2 kts | 341° |
| 2026-05-05 05:54 | 43.66346 | 7.21260 | 20 ft | 2 kts | 9° |
| 2026-05-05 05:55 | 43.66332 | 7.21254 | 20 ft | 2 kts | 49° |
| 2026-05-05 05:55 | 43.66325 | 7.21236 | 20 ft | 2 kts | 73° |
| 2026-05-05 05:55 | 43.66325 | 7.21235 | 20 ft | 0 kts | 73° |
| 2026-05-05 05:58 | 43.66337 | 7.21288 | 22 ft | 12 kts | 76° |
| 2026-05-05 05:58 | 43.66299 | 7.21350 | 20 ft | 10 kts | 204° |
| 2026-05-05 05:58 | 43.66267 | 7.21349 | 20 ft | 3 kts | 87° |
| 2026-05-05 05:58 | 43.66311 | 7.21398 | 20 ft | 15 kts | 31° |
| 2026-05-05 05:59 | 43.66370 | 7.21514 | 20 ft | 15 kts | 97° |
| 2026-05-05 05:59 | 43.66303 | 7.21599 | 20 ft | 13 kts | 185° |
| 2026-05-05 05:59 | 43.66228 | 7.21523 | 20 ft | 15 kts | 224° |
| 2026-05-05 05:59 | 43.66134 | 7.21395 | 21 ft | 22 kts | 225° |
| 2026-05-05 06:00 | 43.66024 | 7.21243 | 21 ft | 23 kts | 225° |
| 2026-05-05 06:00 | 43.65911 | 7.21088 | 21 ft | 23 kts | 225° |
| 2026-05-05 06:00 | 43.65799 | 7.20934 | 21 ft | 23 kts | 225° |
| 2026-05-05 06:00 | 43.65689 | 7.20786 | 21 ft | 22 kts | 225° |
| 2026-05-05 06:01 | 43.65581 | 7.20633 | 21 ft | 22 kts | 225° |
| 2026-05-05 06:01 | 43.65472 | 7.20484 | 21 ft | 22 kts | 225° |
| 2026-05-05 06:01 | 43.65369 | 7.20342 | 21 ft | 20 kts | 225° |
| 2026-05-05 06:01 | 43.65256 | 7.20323 | 20 ft | 18 kts | 141° |
| 2026-05-05 06:02 | 43.65169 | 7.20436 | 22 ft | 16 kts | 139° |
| 2026-05-05 06:02 | 43.65066 | 7.20451 | 21 ft | 15 kts | 210° |
| 2026-05-05 06:02 | 43.65001 | 7.20376 | 23 ft | 9 kts | 227° |
| 2026-05-05 06:02 | 43.64968 | 7.20328 | 21 ft | 5 kts | 225° |
| 2026-05-05 06:03 | 43.64956 | 7.20312 | 21 ft | 1 kts | 224° |
| 2026-05-05 06:03 | 43.64955 | 7.20311 | 21 ft | 0 kts | 224° |
| 2026-05-05 06:03 | 43.64928 | 7.20277 | 21 ft | 9 kts | 221° |
| 2026-05-05 06:03 | 43.64890 | 7.20228 | 23 ft | 9 kts | 227° |
| 2026-05-05 06:04 | 43.64830 | 7.20145 | 21 ft | 12 kts | 213° |
| 2026-05-05 06:04 | 43.64767 | 7.20147 | 21 ft | 8 kts | 146° |
| 2026-05-05 06:04 | 43.64754 | 7.20162 | 21 ft | 0 kts | 137° |
| 2026-05-05 06:04 | 43.64720 | 7.20207 | 22 ft | 12 kts | 133° |
| 2026-05-05 06:05 | 43.64708 | 7.20282 | 23 ft | 6 kts | 66° |
| 2026-05-05 06:05 | 43.64727 | 7.20316 | 24 ft | 0 kts | 49° |
| 2026-05-05 06:05 | 43.64773 | 7.20385 | 24 ft | 29 kts | 46° |
| 2026-05-05 06:06 | 43.65058 | 7.20777 | 22 ft | 86 kts | 45° |
| 2026-05-05 06:06 | 43.65615 | 7.21535 | 23 ft | 136 kts | 44° |
| 2026-05-05 06:06 | 43.66338 | 7.22549 | 314 ft | 153 kts | 47° |
| 2026-05-05 06:06 | 43.67034 | 7.23698 | 838 ft | 160 kts | 62° |
| 2026-05-05 06:07 | 43.67099 | 7.25242 | 1267 ft | 175 kts | 111° |
| 2026-05-05 06:07 | 43.66236 | 7.26549 | 1558 ft | 197 kts | 145° |
| 2026-05-05 06:07 | 43.65082 | 7.27618 | 2210 ft | 201 kts | 144° |
| 2026-05-05 06:07 | 43.63939 | 7.28804 | 2826 ft | 212 kts | 139° |
| 2026-05-05 06:08 | 43.62734 | 7.30216 | 3248 ft | 242 kts | 135° |
| 2026-05-05 06:08 | 43.61299 | 7.31428 | 4192 ft | 249 kts | 162° |
| 2026-05-05 06:08 | 43.59599 | 7.31392 | 5386 ft | 249 kts | 196° |
| 2026-05-05 06:08 | 43.58028 | 7.30391 | 6292 ft | 241 kts | 208° |
| 2026-05-05 06:09 | 43.56638 | 7.29147 | 7220 ft | 239 kts | 212° |
| 2026-05-05 06:09 | 43.55360 | 7.27698 | 7978 ft | 233 kts | 229° |
| 2026-05-05 06:09 | 43.54676 | 7.25668 | 8602 ft | 240 kts | 261° |
| 2026-05-05 06:09 | 43.54968 | 7.23445 | 9245 ft | 244 kts | 296° |
| 2026-05-05 06:10 | 43.55935 | 7.21455 | 9903 ft | 252 kts | 303° |
| 2026-05-05 06:10 | 43.57007 | 7.19633 | 10513 ft | 239 kts | 306° |
| 2026-05-05 06:10 | 43.58076 | 7.17881 | 11143 ft | 246 kts | 305° |
| 2026-05-05 06:10 | 43.59164 | 7.16038 | 11762 ft | 247 kts | 303° |
| 2026-05-05 06:11 | 43.60227 | 7.14189 | 12382 ft | 248 kts | 306° |
| 2026-05-05 06:11 | 43.61583 | 7.12645 | 13007 ft | 261 kts | 326° |
| 2026-05-05 06:11 | 43.63299 | 7.11702 | 13641 ft | 270 kts | 336° |
| 2026-05-05 06:11 | 43.65136 | 7.10878 | 14108 ft | 285 kts | 338° |
| 2026-05-05 06:12 | 43.67082 | 7.10055 | 14573 ft | 300 kts | 338° |
| 2026-05-05 06:12 | 43.69130 | 7.09184 | 15058 ft | 315 kts | 338° |
| 2026-05-05 06:12 | 43.71273 | 7.08245 | 15532 ft | 331 kts | 338° |
| 2026-05-05 06:12 | 43.73479 | 7.07261 | 15984 ft | 346 kts | 338° |
| 2026-05-05 06:13 | 43.75820 | 7.06214 | 16412 ft | 360 kts | 338° |
| 2026-05-05 06:13 | 43.78246 | 7.05137 | 16979 ft | 370 kts | 339° |
| 2026-05-05 06:13 | 43.80709 | 7.04052 | 17734 ft | 373 kts | 339° |
| 2026-05-05 06:13 | 43.83197 | 7.02952 | 18465 ft | 378 kts | 339° |
| 2026-05-05 06:14 | 43.85715 | 7.01834 | 19156 ft | 382 kts | 339° |
| 2026-05-05 06:14 | 43.88264 | 7.00698 | 19825 ft | 387 kts | 338° |
| 2026-05-05 06:14 | 43.90843 | 6.99548 | 20499 ft | 391 kts | 338° |
| 2026-05-05 06:14 | 43.93446 | 6.98388 | 21147 ft | 395 kts | 339° |
| 2026-05-05 06:15 | 43.96039 | 6.97233 | 21804 ft | 399 kts | 339° |
| 2026-05-05 06:15 | 43.98691 | 6.96048 | 22410 ft | 402 kts | 339° |
| 2026-05-05 06:15 | 44.01361 | 6.94856 | 23007 ft | 404 kts | 339° |
| 2026-05-05 06:15 | 44.04054 | 6.93651 | 23546 ft | 409 kts | 339° |
| 2026-05-05 06:16 | 44.06773 | 6.92433 | 24011 ft | 413 kts | 339° |
| 2026-05-05 06:16 | 44.09521 | 6.91199 | 24528 ft | 417 kts | 339° |
| 2026-05-05 06:16 | 44.12292 | 6.89956 | 25032 ft | 420 kts | 339° |
| 2026-05-05 06:16 | 44.15145 | 6.88961 | 25491 ft | 426 kts | 349° |
| 2026-05-05 06:17 | 44.18057 | 6.88463 | 25995 ft | 429 kts | 351° |
| 2026-05-05 06:17 | 44.21034 | 6.88001 | 26443 ft | 432 kts | 352° |
| 2026-05-05 06:17 | 44.24032 | 6.87561 | 26882 ft | 435 kts | 352° |
| 2026-05-05 06:17 | 44.27050 | 6.87124 | 27293 ft | 438 kts | 352° |
| 2026-05-05 06:18 | 44.30089 | 6.86673 | 27700 ft | 440 kts | 352° |
| 2026-05-05 06:18 | 44.33144 | 6.86206 | 28048 ft | 445 kts | 351° |
| 2026-05-05 06:18 | 44.36241 | 6.85727 | 28338 ft | 450 kts | 352° |
| 2026-05-05 06:18 | 44.39363 | 6.85250 | 28744 ft | 452 kts | 352° |
| 2026-05-05 06:19 | 44.42444 | 6.84786 | 29167 ft | 452 kts | 352° |
| 2026-05-05 06:19 | 44.45567 | 6.84316 | 29624 ft | 451 kts | 352° |
| 2026-05-05 06:19 | 44.48683 | 6.83846 | 30100 ft | 450 kts | 352° |
| 2026-05-05 06:19 | 44.51795 | 6.83372 | 30546 ft | 449 kts | 352° |
| 2026-05-05 06:20 | 44.54899 | 6.82892 | 31001 ft | 449 kts | 352° |
| 2026-05-05 06:20 | 44.58000 | 6.82414 | 31438 ft | 449 kts | 352° |
| 2026-05-05 06:20 | 44.61103 | 6.81942 | 31890 ft | 448 kts | 352° |
| 2026-05-05 06:20 | 44.64202 | 6.81472 | 32311 ft | 447 kts | 351° |
| 2026-05-05 06:21 | 44.67288 | 6.81002 | 32736 ft | 446 kts | 351° |
| 2026-05-05 06:21 | 44.70328 | 6.80535 | 33164 ft | 446 kts | 351° |
| 2026-05-05 06:21 | 44.73410 | 6.80059 | 33540 ft | 445 kts | 351° |
| 2026-05-05 06:21 | 44.76505 | 6.79581 | 33681 ft | 452 kts | 351° |
| 2026-05-05 06:22 | 44.82874 | 6.78692 | 33796 ft | 468 kts | 354° |
| 2026-05-05 06:22 | 44.89487 | 6.78392 | 33884 ft | 483 kts | 357° |
| 2026-05-05 06:23 | 44.96267 | 6.78048 | 33977 ft | 492 kts | 355° |
| 2026-05-05 06:23 | 45.03087 | 6.77494 | 33978 ft | 496 kts | 355° |
| 2026-05-05 06:24 | 45.09979 | 6.77057 | 33980 ft | 495 kts | 356° |
| 2026-05-05 06:24 | 45.16844 | 6.76630 | 34000 ft | 493 kts | 356° |
| 2026-05-05 06:25 | 45.23695 | 6.76153 | 33990 ft | 492 kts | 356° |
| 2026-05-05 06:25 | 45.30495 | 6.75700 | 33979 ft | 493 kts | 356° |
| 2026-05-05 06:26 | 45.37340 | 6.75251 | 33988 ft | 493 kts | 356° |
| 2026-05-05 06:26 | 45.44209 | 6.74786 | 34002 ft | 495 kts | 356° |
| 2026-05-05 06:27 | 45.53369 | 6.74164 | 34000 ft | 495 kts | 356° |
| 2026-05-05 06:28 | 45.61371 | 6.73615 | 34010 ft | 495 kts | 356° |
| 2026-05-05 06:28 | 45.68261 | 6.73141 | 33978 ft | 496 kts | 356° |
| 2026-05-05 06:29 | 45.73992 | 6.72749 | 33997 ft | 496 kts | 356° |
| 2026-05-05 06:29 | 45.80891 | 6.72272 | 33978 ft | 497 kts | 356° |
| 2026-05-05 06:30 | 45.88916 | 6.71725 | 33980 ft | 497 kts | 356° |
| 2026-05-05 06:30 | 45.94663 | 6.71337 | 33990 ft | 498 kts | 357° |
| 2026-05-05 06:31 | 46.01585 | 6.70866 | 33981 ft | 498 kts | 357° |
| 2026-05-05 06:31 | 46.09644 | 6.70313 | 33959 ft | 500 kts | 356° |
| 2026-05-05 06:32 | 46.15365 | 6.68775 | 33981 ft | 500 kts | 341° |
| 2026-05-05 06:32 | 46.21930 | 6.65656 | 33960 ft | 500 kts | 339° |
| 2026-05-05 06:33 | 46.28502 | 6.62388 | 33958 ft | 499 kts | 339° |
| 2026-05-05 06:33 | 46.35089 | 6.59187 | 33960 ft | 499 kts | 340° |
| 2026-05-05 06:34 | 46.41674 | 6.55992 | 33931 ft | 499 kts | 339° |
| 2026-05-05 06:34 | 46.48199 | 6.52775 | 33937 ft | 499 kts | 339° |
| 2026-05-05 06:35 | 46.54784 | 6.49539 | 33939 ft | 500 kts | 339° |
| 2026-05-05 06:35 | 46.61373 | 6.46300 | 33945 ft | 499 kts | 339° |
| 2026-05-05 06:36 | 46.67945 | 6.43048 | 33955 ft | 499 kts | 339° |
| 2026-05-05 06:36 | 46.74516 | 6.39795 | 33950 ft | 499 kts | 339° |
| 2026-05-05 06:37 | 46.81051 | 6.36552 | 33952 ft | 500 kts | 339° |
| 2026-05-05 06:37 | 46.87629 | 6.33275 | 33947 ft | 499 kts | 339° |
| 2026-05-05 06:38 | 46.94206 | 6.29994 | 33941 ft | 499 kts | 339° |
| 2026-05-05 06:38 | 47.00785 | 6.26702 | 33938 ft | 499 kts | 338° |
| 2026-05-05 06:39 | 47.07295 | 6.23198 | 33947 ft | 496 kts | 331° |
| 2026-05-05 06:39 | 47.13471 | 6.18810 | 33933 ft | 497 kts | 330° |
| 2026-05-05 06:40 | 47.19667 | 6.14304 | 33923 ft | 497 kts | 330° |
| 2026-05-05 06:40 | 47.25866 | 6.09813 | 33926 ft | 497 kts | 330° |
| 2026-05-05 06:41 | 47.32079 | 6.05448 | 33929 ft | 501 kts | 335° |
| 2026-05-05 06:41 | 47.35427 | 6.03979 | 33930 ft | 505 kts | 346° |
| 2026-05-05 06:41 | 47.38925 | 6.03372 | 33936 ft | 509 kts | 357° |
| 2026-05-05 06:42 | 47.46019 | 6.03443 | 33927 ft | 510 kts | 0° |
| 2026-05-05 06:42 | 47.53114 | 6.03701 | 33924 ft | 510 kts | 360° |
| 2026-05-05 06:43 | 47.60217 | 6.03835 | 33923 ft | 510 kts | 359° |
| 2026-05-05 06:43 | 47.67272 | 6.03969 | 33929 ft | 511 kts | 359° |
| 2026-05-05 06:44 | 47.74387 | 6.04152 | 33930 ft | 512 kts | 360° |
| 2026-05-05 06:44 | 47.81506 | 6.04357 | 33927 ft | 512 kts | 360° |
| 2026-05-05 06:45 | 47.88637 | 6.04596 | 33924 ft | 513 kts | 360° |
| 2026-05-05 06:45 | 47.95723 | 6.04812 | 33926 ft | 513 kts | 360° |
| 2026-05-05 06:46 | 48.02850 | 6.05031 | 33926 ft | 512 kts | 360° |
| 2026-05-05 06:46 | 48.09980 | 6.05255 | 33925 ft | 512 kts | 360° |
| 2026-05-05 06:47 | 48.17113 | 6.05479 | 33927 ft | 513 kts | 360° |
| 2026-05-05 06:47 | 48.24196 | 6.05701 | 33927 ft | 512 kts | 360° |
| 2026-05-05 06:48 | 48.31316 | 6.05926 | 33929 ft | 511 kts | 360° |
| 2026-05-05 06:48 | 48.38424 | 6.06222 | 33937 ft | 511 kts | 0° |
| 2026-05-05 06:49 | 48.45526 | 6.06602 | 33928 ft | 510 kts | 0° |
| 2026-05-05 06:49 | 48.52563 | 6.06924 | 33930 ft | 509 kts | 360° |
| 2026-05-05 06:50 | 48.59635 | 6.07247 | 33933 ft | 508 kts | 360° |
| 2026-05-05 06:50 | 48.66689 | 6.07591 | 33934 ft | 507 kts | 359° |
| 2026-05-05 06:51 | 48.73731 | 6.07926 | 33935 ft | 505 kts | 359° |
| 2026-05-05 06:51 | 48.80703 | 6.08254 | 33934 ft | 504 kts | 359° |
| 2026-05-05 06:52 | 48.87709 | 6.08592 | 33930 ft | 504 kts | 359° |
| 2026-05-05 06:52 | 48.94711 | 6.08929 | 33930 ft | 503 kts | 359° |
| 2026-05-05 06:53 | 49.01686 | 6.09265 | 33925 ft | 500 kts | 359° |
| 2026-05-05 06:53 | 49.08632 | 6.09598 | 33920 ft | 499 kts | 358° |
| 2026-05-05 06:54 | 49.15529 | 6.09931 | 33923 ft | 499 kts | 358° |
| 2026-05-05 06:54 | 49.22467 | 6.10270 | 33920 ft | 498 kts | 358° |
| 2026-05-05 06:55 | 49.29382 | 6.10607 | 33921 ft | 497 kts | 358° |
| 2026-05-05 06:55 | 49.36288 | 6.10945 | 33914 ft | 496 kts | 358° |
| 2026-05-05 06:56 | 49.43134 | 6.11140 | 33905 ft | 492 kts | 351° |
| 2026-05-05 06:56 | 49.49673 | 6.08904 | 33912 ft | 475 kts | 331° |
| 2026-05-05 06:57 | 49.55330 | 6.03992 | 33915 ft | 464 kts | 320° |
| 2026-05-05 06:57 | 49.60738 | 5.98581 | 33908 ft | 463 kts | 320° |
| 2026-05-05 06:58 | 49.66164 | 5.93192 | 33909 ft | 465 kts | 320° |
| 2026-05-05 06:58 | 49.71577 | 5.87844 | 33908 ft | 465 kts | 320° |
| 2026-05-05 06:59 | 49.77014 | 5.82419 | 33907 ft | 465 kts | 320° |
| 2026-05-05 06:59 | 49.82442 | 5.76994 | 33909 ft | 464 kts | 320° |
| 2026-05-05 07:00 | 49.87863 | 5.71569 | 33906 ft | 464 kts | 320° |
| 2026-05-05 07:00 | 49.93277 | 5.66131 | 33911 ft | 464 kts | 320° |
| 2026-05-05 07:01 | 49.98653 | 5.60715 | 33919 ft | 464 kts | 320° |
| 2026-05-05 07:01 | 50.04073 | 5.55245 | 33930 ft | 464 kts | 320° |
| 2026-05-05 07:02 | 50.09485 | 5.49768 | 33928 ft | 463 kts | 320° |
| 2026-05-05 07:02 | 50.14880 | 5.44290 | 33929 ft | 462 kts | 320° |
| 2026-05-05 07:03 | 50.20231 | 5.38843 | 33930 ft | 462 kts | 320° |
| 2026-05-05 07:03 | 50.22932 | 5.36086 | 33527 ft | 465 kts | 320° |
| 2026-05-05 07:03 | 50.25622 | 5.33341 | 33020 ft | 457 kts | 320° |
| 2026-05-05 07:03 | 50.28251 | 5.30665 | 32555 ft | 445 kts | 320° |
| 2026-05-05 07:04 | 50.30813 | 5.28049 | 32106 ft | 434 kts | 320° |
| 2026-05-05 07:04 | 50.33309 | 5.25489 | 31653 ft | 424 kts | 320° |
| 2026-05-05 07:04 | 50.35751 | 5.22974 | 31234 ft | 415 kts | 320° |
| 2026-05-05 07:04 | 50.38139 | 5.20514 | 30817 ft | 407 kts | 320° |
| 2026-05-05 07:05 | 50.40452 | 5.18131 | 30413 ft | 401 kts | 320° |
| 2026-05-05 07:05 | 50.42777 | 5.15732 | 30002 ft | 399 kts | 321° |
| 2026-05-05 07:05 | 50.45093 | 5.13339 | 29592 ft | 398 kts | 321° |
| 2026-05-05 07:05 | 50.47404 | 5.10950 | 29182 ft | 397 kts | 321° |
| 2026-05-05 07:06 | 50.49707 | 5.08570 | 28778 ft | 395 kts | 321° |
| 2026-05-05 07:06 | 50.51998 | 5.06199 | 28380 ft | 394 kts | 322° |
| 2026-05-05 07:06 | 50.54284 | 5.03830 | 27975 ft | 393 kts | 322° |
| 2026-05-05 07:06 | 50.56560 | 5.01467 | 27574 ft | 391 kts | 322° |
| 2026-05-05 07:07 | 50.58827 | 4.99111 | 27173 ft | 390 kts | 322° |
| 2026-05-05 07:07 | 50.61052 | 4.96794 | 26781 ft | 389 kts | 322° |
| 2026-05-05 07:07 | 50.63303 | 4.94450 | 26383 ft | 387 kts | 323° |
| 2026-05-05 07:07 | 50.65535 | 4.92100 | 25991 ft | 384 kts | 320° |
| 2026-05-05 07:08 | 50.67528 | 4.89358 | 25620 ft | 378 kts | 313° |
| 2026-05-05 07:08 | 50.69418 | 4.86474 | 25225 ft | 377 kts | 313° |
| 2026-05-05 07:08 | 50.71279 | 4.83575 | 24833 ft | 375 kts | 312° |
| 2026-05-05 07:08 | 50.73120 | 4.80674 | 24455 ft | 373 kts | 313° |
| 2026-05-05 07:09 | 50.74958 | 4.77787 | 24084 ft | 372 kts | 313° |
| 2026-05-05 07:09 | 50.76792 | 4.74921 | 23692 ft | 370 kts | 313° |
| 2026-05-05 07:09 | 50.78594 | 4.72108 | 23323 ft | 368 kts | 313° |
| 2026-05-05 07:09 | 50.80411 | 4.69267 | 22945 ft | 366 kts | 314° |
| 2026-05-05 07:10 | 50.82215 | 4.66438 | 22572 ft | 364 kts | 313° |
| 2026-05-05 07:10 | 50.84008 | 4.63617 | 22201 ft | 363 kts | 313° |
| 2026-05-05 07:10 | 50.85792 | 4.60807 | 21829 ft | 360 kts | 314° |
| 2026-05-05 07:10 | 50.87547 | 4.58043 | 21462 ft | 351 kts | 314° |
| 2026-05-05 07:11 | 50.89256 | 4.55354 | 21110 ft | 342 kts | 313° |
| 2026-05-05 07:11 | 50.90726 | 4.52492 | 20783 ft | 337 kts | 301° |
| 2026-05-05 07:11 | 50.91974 | 4.49359 | 20432 ft | 335 kts | 300° |
| 2026-05-05 07:11 | 50.93194 | 4.46217 | 20084 ft | 333 kts | 300° |
| 2026-05-05 07:12 | 50.94391 | 4.43091 | 19744 ft | 331 kts | 300° |
| 2026-05-05 07:12 | 50.95581 | 4.39983 | 19408 ft | 328 kts | 300° |
| 2026-05-05 07:12 | 50.96766 | 4.36901 | 19069 ft | 326 kts | 300° |
| 2026-05-05 07:12 | 50.97945 | 4.33848 | 18743 ft | 323 kts | 300° |
| 2026-05-05 07:13 | 50.99112 | 4.30821 | 18414 ft | 320 kts | 300° |
| 2026-05-05 07:13 | 51.00265 | 4.27821 | 18088 ft | 317 kts | 300° |
| 2026-05-05 07:13 | 51.01391 | 4.24885 | 17780 ft | 314 kts | 300° |
| 2026-05-05 07:13 | 51.02517 | 4.21945 | 17461 ft | 310 kts | 300° |
| 2026-05-05 07:14 | 51.03638 | 4.19019 | 17157 ft | 311 kts | 300° |
| 2026-05-05 07:14 | 51.04767 | 4.16064 | 16829 ft | 314 kts | 300° |
| 2026-05-05 07:14 | 51.05906 | 4.13080 | 16504 ft | 317 kts | 300° |
| 2026-05-05 07:14 | 51.07053 | 4.10073 | 16175 ft | 317 kts | 300° |
| 2026-05-05 07:15 | 51.08186 | 4.07099 | 15856 ft | 312 kts | 301° |
| 2026-05-05 07:15 | 51.09374 | 4.04245 | 15544 ft | 307 kts | 309° |
| 2026-05-05 07:15 | 51.10882 | 4.01955 | 15256 ft | 302 kts | 322° |
| 2026-05-05 07:15 | 51.12547 | 3.99939 | 14934 ft | 299 kts | 322° |
| 2026-05-05 07:16 | 51.14231 | 3.97953 | 14623 ft | 303 kts | 323° |
| 2026-05-05 07:16 | 51.15938 | 3.95964 | 14308 ft | 305 kts | 324° |
| 2026-05-05 07:16 | 51.17658 | 3.93946 | 13996 ft | 308 kts | 323° |
| 2026-05-05 07:16 | 51.19366 | 3.91921 | 13682 ft | 303 kts | 323° |
| 2026-05-05 07:17 | 51.21041 | 3.89927 | 13372 ft | 298 kts | 323° |
| 2026-05-05 07:17 | 51.22749 | 3.88118 | 13082 ft | 292 kts | 334° |
| 2026-05-05 07:17 | 51.24654 | 3.87096 | 12805 ft | 291 kts | 350° |
| 2026-05-05 07:17 | 51.26658 | 3.86867 | 12506 ft | 296 kts | 358° |
| 2026-05-05 07:18 | 51.28731 | 3.86804 | 12189 ft | 300 kts | 359° |
| 2026-05-05 07:18 | 51.30797 | 3.86782 | 11871 ft | 294 kts | 359° |
| 2026-05-05 07:18 | 51.32824 | 3.86758 | 11572 ft | 289 kts | 359° |
| 2026-05-05 07:18 | 51.34816 | 3.86717 | 11275 ft | 284 kts | 359° |
| 2026-05-05 07:19 | 51.36782 | 3.86665 | 10979 ft | 284 kts | 359° |
| 2026-05-05 07:19 | 51.38774 | 3.86612 | 10692 ft | 289 kts | 359° |
| 2026-05-05 07:19 | 51.40788 | 3.86765 | 10403 ft | 291 kts | 10° |
| 2026-05-05 07:19 | 51.42652 | 3.87777 | 10119 ft | 285 kts | 27° |
| 2026-05-05 07:20 | 51.44282 | 3.89501 | 9964 ft | 277 kts | 34° |
| 2026-05-05 07:20 | 51.45852 | 3.91308 | 9682 ft | 279 kts | 36° |
| 2026-05-05 07:20 | 51.47414 | 3.93137 | 9344 ft | 277 kts | 36° |
| 2026-05-05 07:20 | 51.48962 | 3.94949 | 9003 ft | 275 kts | 36° |
| 2026-05-05 07:21 | 51.50504 | 3.96744 | 8670 ft | 273 kts | 36° |
| 2026-05-05 07:21 | 51.52036 | 3.98520 | 8349 ft | 271 kts | 36° |
| 2026-05-05 07:21 | 51.53556 | 4.00282 | 8032 ft | 268 kts | 36° |
| 2026-05-05 07:21 | 51.55060 | 4.02029 | 7723 ft | 266 kts | 36° |
| 2026-05-05 07:22 | 51.56529 | 4.03741 | 7416 ft | 263 kts | 36° |
| 2026-05-05 07:22 | 51.58009 | 4.05463 | 7112 ft | 261 kts | 36° |
| 2026-05-05 07:22 | 51.59476 | 4.07172 | 6813 ft | 260 kts | 36° |
| 2026-05-05 07:22 | 51.60933 | 4.08877 | 6513 ft | 259 kts | 36° |
| 2026-05-05 07:23 | 51.62387 | 4.10578 | 6211 ft | 257 kts | 36° |
| 2026-05-05 07:23 | 51.63828 | 4.12261 | 5920 ft | 255 kts | 36° |
| 2026-05-05 07:23 | 51.65253 | 4.13928 | 5630 ft | 253 kts | 36° |
| 2026-05-05 07:23 | 51.66674 | 4.15593 | 5341 ft | 251 kts | 36° |
| 2026-05-05 07:24 | 51.68079 | 4.17238 | 5043 ft | 248 kts | 36° |
| 2026-05-05 07:24 | 51.69470 | 4.18869 | 4769 ft | 246 kts | 36° |
| 2026-05-05 07:24 | 51.70829 | 4.20465 | 4481 ft | 244 kts | 36° |
| 2026-05-05 07:24 | 51.72193 | 4.22065 | 4263 ft | 238 kts | 36° |
| 2026-05-05 07:25 | 51.73600 | 4.23300 | 4177 ft | 224 kts | 17° |
| 2026-05-05 07:25 | 51.75097 | 4.23441 | 4096 ft | 212 kts | 351° |
| 2026-05-05 07:25 | 51.76452 | 4.22650 | 3992 ft | 206 kts | 339° |
| 2026-05-05 07:25 | 51.77754 | 4.21693 | 3906 ft | 205 kts | 338° |
| 2026-05-05 07:26 | 51.79036 | 4.20718 | 3817 ft | 203 kts | 338° |
| 2026-05-05 07:26 | 51.80358 | 4.20007 | 3727 ft | 198 kts | 360° |
| 2026-05-05 07:26 | 51.81739 | 4.20134 | 3551 ft | 199 kts | 8° |
| 2026-05-05 07:26 | 51.83110 | 4.20390 | 3330 ft | 198 kts | 8° |
| 2026-05-05 07:27 | 51.84472 | 4.20646 | 3122 ft | 196 kts | 9° |
| 2026-05-05 07:27 | 51.85763 | 4.21126 | 2941 ft | 190 kts | 24° |
| 2026-05-05 07:27 | 51.86860 | 4.22273 | 2764 ft | 189 kts | 43° |
| 2026-05-05 07:27 | 51.87662 | 4.23969 | 2569 ft | 191 kts | 55° |
| 2026-05-05 07:28 | 51.88386 | 4.25775 | 2410 ft | 190 kts | 55° |
| 2026-05-05 07:28 | 51.89121 | 4.27601 | 2183 ft | 194 kts | 57° |
| 2026-05-05 07:28 | 51.89842 | 4.29407 | 1927 ft | 186 kts | 56° |
| 2026-05-05 07:28 | 51.90534 | 4.31128 | 1681 ft | 178 kts | 56° |
| 2026-05-05 07:29 | 51.91190 | 4.32771 | 1447 ft | 171 kts | 56° |
| 2026-05-05 07:29 | 51.91809 | 4.34318 | 1227 ft | 156 kts | 57° |
| 2026-05-05 07:29 | 51.92387 | 4.35758 | 1036 ft | 153 kts | 54° |
| 2026-05-05 07:29 | 51.92952 | 4.37170 | 833 ft | 143 kts | 54° |
| 2026-05-05 07:30 | 51.93483 | 4.38496 | 642 ft | 138 kts | 56° |
| 2026-05-05 07:30 | 51.94501 | 4.41047 | 283 ft | 133 kts | 57° |
| 2026-05-05 07:30 | 51.95000 | 4.42302 | 93 ft | 133 kts | 56° |
| 2026-05-05 07:31 | 51.95494 | 4.43522 | 0 ft | 122 kts | 57° |
| 2026-05-05 07:31 | 51.95807 | 4.44306 | -1 ft | 59 kts | 57° |
| 2026-05-05 07:31 | 51.95913 | 4.44625 | -2 ft | 20 kts | 98° |
| 2026-05-05 07:31 | 51.95826 | 4.44755 | 0 ft | 15 kts | 169° |
| 2026-05-05 07:32 | 51.95752 | 4.44679 | 1 ft | 13 kts | 238° |
| 2026-05-05 07:32 | 51.95703 | 4.44553 | 0 ft | 13 kts | 237° |
| 2026-05-05 07:32 | 51.95652 | 4.44429 | 2 ft | 13 kts | 237° |
| 2026-05-05 07:32 | 51.95603 | 4.44303 | 1 ft | 13 kts | 238° |
| 2026-05-05 07:33 | 51.95556 | 4.44176 | 1 ft | 13 kts | 238° |
| 2026-05-05 07:33 | 51.95504 | 4.44053 | 0 ft | 13 kts | 239° |
| 2026-05-05 07:33 | 51.95455 | 4.43927 | 0 ft | 13 kts | 235° |
| 2026-05-05 07:33 | 51.95403 | 4.43802 | 0 ft | 13 kts | 237° |
| 2026-05-05 07:34 | 51.95354 | 4.43677 | 0 ft | 13 kts | 236° |
| 2026-05-05 07:34 | 51.95304 | 4.43553 | 1 ft | 11 kts | 238° |
| 2026-05-05 07:34 | 51.95245 | 4.43518 | 0 ft | 10 kts | 160° |
| 2026-05-05 07:34 | 51.95186 | 4.43572 | 1 ft | 10 kts | 148° |
| 2026-05-05 07:35 | 51.95135 | 4.43623 | 0 ft | 7 kts | 165° |
| 2026-05-05 07:35 | 51.95120 | 4.43619 | 1 ft | 6 kts | 198° |
| 2026-05-05 07:35 | 51.95097 | 4.43506 | 0 ft | 4 kts | 315° |
| 2026-05-05 07:36 | 51.95116 | 4.43483 | 0 ft | 0 kts | 326° |